Budennovsk, Russia
Current Conditions -  °F | °C
As of 12:30 AM on Tuesday 25 Nov 2014 (Local Time) from URMM Reporting Station
Overcast Overcast  
Wind Chill: 10°   Ceiling: 500
Heat Index: 21°   Visibility: 4mi
Dew Point: 19°   Wind: 11mph
Humidity: 93%   Direction: 120°ESE
Pressure: 30.42"   Gusts: NA
Location:  44.76°N, 44.1°E
Report Text: URMM 242130Z 12005MPS 6000 OVC005 M06/M07 Q1030 R12/CLRD70NOSIG RMK MT OBSC QFE744/0992
Loading
Personal Weather Stations






























Interactive Weather Map New forecast layout! Learn more

10-Day Weather Forecast

Advertisements
Track Severe Weather on mobile